Sagle, Idaho
Current Conditions -  °F | °C
As of 1:15 AM on Wednesday 28 Jan 2015 (Local Time) from KCOE Reporting Station
Overcast Overcast  
Wind Chill: -1°   Ceiling: 600
Heat Index:   Visibility: 9mi
Dew Point:   Wind: 7mph
Humidity: 93%   Direction: 240°WSW
Pressure: 30.17"   Gusts: NA
Location:  48.2°N, 116.55°W
Report Text: KCOE 280915Z AUTO 24006KT 9SM BKN006 OVC010 02/01 A3017 RMK AO1
Loading
Personal Weather Stations






























Interactive Weather Map New forecast layout! Learn more

10-Day Weather Forecast

Advertisements
Track Severe Weather on mobile